sensor_id;sensor_type;location;lat;lon;timestamp;pressure;altitude;pressure_sealevel;temperature;humidity
19843;BME280;10082;51.038;6.992;2022-08-11T00:01:44;112171.53;;;-144.33;45.96
19843;BME280;10082;51.038;6.992;2022-08-11T00:04:13;112171.53;;;-144.33;47.10
19843;BME280;10082;51.038;6.992;2022-08-11T00:06:42;112171.53;;;-144.33;48.41
19843;BME280;10082;51.038;6.992;2022-08-11T00:09:11;112171.53;;;-144.33;48.79
19843;BME280;10082;51.038;6.992;2022-08-11T00:11:42;112171.53;;;-144.33;49.32
19843;BME280;10082;51.038;6.992;2022-08-11T00:14:14;112171.53;;;-144.33;49.90
19843;BME280;10082;51.038;6.992;2022-08-11T00:16:42;112171.53;;;-144.33;50.65
19843;BME280;10082;51.038;6.992;2022-08-11T00:19:19;112171.53;;;-144.33;50.87
19843;BME280;10082;51.038;6.992;2022-08-11T00:21:47;112171.53;;;-144.33;51.69
19843;BME280;10082;51.038;6.992;2022-08-11T00:24:15;112171.53;;;-144.33;52.58
19843;BME280;10082;51.038;6.992;2022-08-11T00:26:46;112171.53;;;-144.33;53.73
19843;BME280;10082;51.038;6.992;2022-08-11T00:29:13;112171.53;;;-144.33;54.58
19843;BME280;10082;51.038;6.992;2022-08-11T00:31:43;112171.53;;;-144.33;54.63
19843;BME280;10082;51.038;6.992;2022-08-11T00:34:13;112171.53;;;-144.33;55.39
19843;BME280;10082;51.038;6.992;2022-08-11T00:36:46;112171.53;;;-144.33;56.23
19843;BME280;10082;51.038;6.992;2022-08-11T00:39:14;112171.53;;;-144.33;56.02
19843;BME280;10082;51.038;6.992;2022-08-11T00:41:46;112171.53;;;-144.33;56.87
19843;BME280;10082;51.038;6.992;2022-08-11T00:44:44;112171.53;;;-144.33;58.50
19843;BME280;10082;51.038;6.992;2022-08-11T00:47:26;112171.53;;;-144.33;60.23
19843;BME280;10082;51.038;6.992;2022-08-11T00:50:04;112171.53;;;-144.33;60.94
19843;BME280;10082;51.038;6.992;2022-08-11T00:52:49;112171.53;;;-144.33;62.19
19843;BME280;10082;51.038;6.992;2022-08-11T00:55:35;112171.53;;;-144.33;63.25
19843;BME280;10082;51.038;6.992;2022-08-11T00:58:32;112171.53;;;-144.33;64.28
19843;BME280;10082;51.038;6.992;2022-08-11T01:01:09;112171.53;;;-144.33;65.68
19843;BME280;10082;51.038;6.992;2022-08-11T01:09:38;112171.53;;;-144.33;66.24
19843;BME280;10082;51.038;6.992;2022-08-11T01:12:28;112171.53;;;-144.33;65.46
19843;BME280;10082;51.038;6.992;2022-08-11T01:21:12;112171.53;;;-144.33;66.52
19843;BME280;10082;51.038;6.992;2022-08-11T01:27:14;112171.53;;;-144.33;68.01
19843;BME280;10082;51.038;6.992;2022-08-11T01:30:11;112171.53;;;-144.33;68.33
19843;BME280;10082;51.038;6.992;2022-08-11T01:33:24;112171.53;;;-144.33;69.31
19843;BME280;10082;51.038;6.992;2022-08-11T01:36:38;112171.53;;;-144.33;69.73
19843;BME280;10082;51.038;6.992;2022-08-11T01:39:30;112171.53;;;-144.33;69.94
19843;BME280;10082;51.038;6.992;2022-08-11T01:42:10;112171.53;;;-144.33;69.76
19843;BME280;10082;51.038;6.992;2022-08-11T01:45:23;112171.53;;;-144.33;70.28
19843;BME280;10082;51.038;6.992;2022-08-11T01:47:59;112171.53;;;-144.33;71.80
19843;BME280;10082;51.038;6.992;2022-08-11T01:50:39;112171.53;;;-144.33;71.82
19843;BME280;10082;51.038;6.992;2022-08-11T01:53:25;112171.53;;;-144.33;71.51
19843;BME280;10082;51.038;6.992;2022-08-11T01:56:03;112171.53;;;-144.33;71.94
19843;BME280;10082;51.038;6.992;2022-08-11T01:58:37;112171.53;;;-144.33;72.10
19843;BME280;10082;51.038;6.992;2022-08-11T02:01:15;112171.53;;;-144.33;71.78
19843;BME280;10082;51.038;6.992;2022-08-11T02:03:50;112171.53;;;-144.33;71.80
19843;BME280;10082;51.038;6.992;2022-08-11T02:06:29;112171.53;;;-144.33;72.32
19843;BME280;10082;51.038;6.992;2022-08-11T02:09:24;112171.53;;;-144.33;72.40
19843;BME280;10082;51.038;6.992;2022-08-11T02:11:57;112171.53;;;-144.33;71.77
19843;BME280;10082;51.038;6.992;2022-08-11T02:14:28;112171.53;;;-144.33;71.19
19843;BME280;10082;51.038;6.992;2022-08-11T02:17:05;112171.53;;;-144.33;70.81
19843;BME280;10082;51.038;6.992;2022-08-11T02:19:43;112171.53;;;-144.33;72.23
19843;BME280;10082;51.038;6.992;2022-08-11T02:22:34;112171.53;;;-144.33;72.73
19843;BME280;10082;51.038;6.992;2022-08-11T02:25:31;112171.53;;;-144.33;72.01
19843;BME280;10082;51.038;6.992;2022-08-11T02:28:16;112171.53;;;-144.33;71.95
19843;BME280;10082;51.038;6.992;2022-08-11T02:30:51;112171.53;;;-144.33;71.72
19843;BME280;10082;51.038;6.992;2022-08-11T02:33:40;112171.53;;;-144.33;72.05
19843;BME280;10082;51.038;6.992;2022-08-11T02:36:10;112171.53;;;-144.33;72.37
19843;BME280;10082;51.038;6.992;2022-08-11T02:38:46;112171.53;;;-144.33;72.42
19843;BME280;10082;51.038;6.992;2022-08-11T02:41:25;112171.53;;;-144.33;72.40
19843;BME280;10082;51.038;6.992;2022-08-11T02:44:26;112171.53;;;-144.33;72.55
19843;BME280;10082;51.038;6.992;2022-08-11T02:47:02;112171.53;;;-144.33;72.47
19843;BME280;10082;51.038;6.992;2022-08-11T02:49:43;112171.53;;;-144.33;73.65
19843;BME280;10082;51.038;6.992;2022-08-11T02:52:24;112171.53;;;-144.33;74.32
19843;BME280;10082;51.038;6.992;2022-08-11T02:55:01;112171.53;;;-144.33;75.39
19843;BME280;10082;51.038;6.992;2022-08-11T02:57:39;112171.53;;;-144.33;75.67
19843;BME280;10082;51.038;6.992;2022-08-11T03:00:08;112171.53;;;-144.33;75.90
19843;BME280;10082;51.038;6.992;2022-08-11T03:02:49;112171.53;;;-144.33;76.29
19843;BME280;10082;51.038;6.992;2022-08-11T03:05:32;112171.53;;;-144.33;76.51
19843;BME280;10082;51.038;6.992;2022-08-11T03:08:23;112171.53;;;-144.33;77.25
19843;BME280;10082;51.038;6.992;2022-08-11T03:10:59;112171.53;;;-144.33;77.33
19843;BME280;10082;51.038;6.992;2022-08-11T03:13:58;112171.53;;;-144.33;78.13
19843;BME280;10082;51.038;6.992;2022-08-11T03:16:52;112171.53;;;-144.33;77.68
19843;BME280;10082;51.038;6.992;2022-08-11T03:19:25;112171.53;;;-144.33;77.75
19843;BME280;10082;51.038;6.992;2022-08-11T03:22:07;112171.53;;;-144.33;78.07
19843;BME280;10082;51.038;6.992;2022-08-11T03:24:48;112171.53;;;-144.33;78.65
19843;BME280;10082;51.038;6.992;2022-08-11T03:27:27;112171.53;;;-144.33;78.73
19843;BME280;10082;51.038;6.992;2022-08-11T03:30:10;112171.53;;;-144.33;79.09
19843;BME280;10082;51.038;6.992;2022-08-11T03:32:47;112171.53;;;-144.33;79.22
19843;BME280;10082;51.038;6.992;2022-08-11T03:35:41;112171.53;;;-144.33;79.74
19843;BME280;10082;51.038;6.992;2022-08-11T03:38:11;112171.53;;;-144.33;79.59
19843;BME280;10082;51.038;6.992;2022-08-11T03:40:54;112171.53;;;-144.33;79.77
19843;BME280;10082;51.038;6.992;2022-08-11T03:43:53;112171.53;;;-144.33;80.00
19843;BME280;10082;51.038;6.992;2022-08-11T03:46:33;112171.53;;;-144.33;80.51
19843;BME280;10082;51.038;6.992;2022-08-11T03:49:24;112171.53;;;-144.33;80.69
19843;BME280;10082;51.038;6.992;2022-08-11T03:52:03;112171.53;;;-144.33;80.97
19843;BME280;10082;51.038;6.992;2022-08-11T03:54:43;112171.53;;;-144.33;80.79
19843;BME280;10082;51.038;6.992;2022-08-11T04:00:39;112171.53;;;-144.33;81.28
19843;BME280;10082;51.038;6.992;2022-08-11T04:03:43;112171.53;;;-144.33;81.12
19843;BME280;10082;51.038;6.992;2022-08-11T04:06:51;112171.53;;;-144.33;81.26
19843;BME280;10082;51.038;6.992;2022-08-11T04:12:42;112171.53;;;-144.33;81.90
19843;BME280;10082;51.038;6.992;2022-08-11T04:15:23;112171.53;;;-144.33;83.17
19843;BME280;10082;51.038;6.992;2022-08-11T04:18:29;112171.53;;;-144.33;83.92
19843;BME280;10082;51.038;6.992;2022-08-11T04:21:20;112171.53;;;-144.33;83.95
19843;BME280;10082;51.038;6.992;2022-08-11T04:24:03;112171.53;;;-144.33;84.40
19843;BME280;10082;51.038;6.992;2022-08-11T04:26:55;112171.53;;;-144.33;84.49
19843;BME280;10082;51.038;6.992;2022-08-11T04:29:41;112171.53;;;-144.33;84.85
19843;BME280;10082;51.038;6.992;2022-08-11T04:32:25;112171.53;;;-144.33;84.79
19843;BME280;10082;51.038;6.992;2022-08-11T04:35:23;112171.53;;;-144.33;85.01
19843;BME280;10082;51.038;6.992;2022-08-11T04:38:29;112171.53;;;-144.33;85.59
19843;BME280;10082;51.038;6.992;2022-08-11T04:45:04;112171.53;;;-144.33;86.31
19843;BME280;10082;51.038;6.992;2022-08-11T04:48:05;112171.53;;;-144.33;86.94
19843;BME280;10082;51.038;6.992;2022-08-11T04:51:19;112171.53;;;-144.33;86.78
19843;BME280;10082;51.038;6.992;2022-08-11T04:54:18;112171.53;;;-144.33;85.59
19843;BME280;10082;51.038;6.992;2022-08-11T04:57:13;112171.53;;;-144.33;84.97
19843;BME280;10082;51.038;6.992;2022-08-11T05:00:04;112171.53;;;-144.33;84.56
19843;BME280;10082;51.038;6.992;2022-08-11T05:06:27;112171.53;;;-144.33;83.98
19843;BME280;10082;51.038;6.992;2022-08-11T05:09:34;112171.53;;;-144.33;81.95
19843;BME280;10082;51.038;6.992;2022-08-11T05:12:23;112171.53;;;-144.33;79.71
19843;BME280;10082;51.038;6.992;2022-08-11T05:14:55;112171.53;;;-144.33;77.83
19843;BME280;10082;51.038;6.992;2022-08-11T05:17:43;112171.53;;;-144.33;73.00
19843;BME280;10082;51.038;6.992;2022-08-11T05:20:29;112171.53;;;-144.33;69.73
19843;BME280;10082;51.038;6.992;2022-08-11T05:23:17;112171.53;;;-144.33;65.41
19843;BME280;10082;51.038;6.992;2022-08-11T05:26:08;112171.53;;;-144.33;63.50
19843;BME280;10082;51.038;6.992;2022-08-11T05:28:55;112171.53;;;-144.33;61.74
19843;BME280;10082;51.038;6.992;2022-08-11T05:31:47;112171.53;;;-144.33;60.03
19843;BME280;10082;51.038;6.992;2022-08-11T05:34:42;112171.53;;;-144.33;58.60
19843;BME280;10082;51.038;6.992;2022-08-11T05:37:19;112171.53;;;-144.33;57.63
19843;BME280;10082;51.038;6.992;2022-08-11T05:39:52;112171.53;;;-144.33;57.01
19843;BME280;10082;51.038;6.992;2022-08-11T05:42:41;112171.53;;;-144.33;57.09
19843;BME280;10082;51.038;6.992;2022-08-11T05:45:27;112171.53;;;-144.33;58.90
19843;BME280;10082;51.038;6.992;2022-08-11T05:48:12;112171.53;;;-144.33;58.54
19843;BME280;10082;51.038;6.992;2022-08-11T05:50:59;112171.53;;;-144.33;58.59
19843;BME280;10082;51.038;6.992;2022-08-11T05:53:45;112171.53;;;-144.33;58.54
19843;BME280;10082;51.038;6.992;2022-08-11T05:56:33;112171.53;;;-144.33;58.08
19843;BME280;10082;51.038;6.992;2022-08-11T05:59:11;112171.53;;;-144.33;58.02
19843;BME280;10082;51.038;6.992;2022-08-11T06:01:40;112171.53;;;-144.33;56.58
19843;BME280;10082;51.038;6.992;2022-08-11T06:04:15;112171.53;;;-144.33;56.04
19843;BME280;10082;51.038;6.992;2022-08-11T06:06:50;112171.53;;;-144.33;54.02
19843;BME280;10082;51.038;6.992;2022-08-11T06:09:31;112171.53;;;-144.33;53.06
19843;BME280;10082;51.038;6.992;2022-08-11T06:12:02;112171.53;;;-144.33;52.57
19843;BME280;10082;51.038;6.992;2022-08-11T06:14:31;112171.53;;;-144.33;52.59
19843;BME280;10082;51.038;6.992;2022-08-11T06:17:00;112171.53;;;-144.33;51.56
19843;BME280;10082;51.038;6.992;2022-08-11T06:19:33;112171.53;;;-144.33;49.62
19843;BME280;10082;51.038;6.992;2022-08-11T06:22:01;112171.53;;;-144.33;46.91
19843;BME280;10082;51.038;6.992;2022-08-11T06:24:28;112171.53;;;-144.33;45.11
19843;BME280;10082;51.038;6.992;2022-08-11T06:26:56;112171.53;;;-144.33;43.08
19843;BME280;10082;51.038;6.992;2022-08-11T06:29:25;112171.53;;;-144.33;41.86
19843;BME280;10082;51.038;6.992;2022-08-11T06:31:55;112171.53;;;-144.33;40.59
19843;BME280;10082;51.038;6.992;2022-08-11T06:34:30;112171.53;;;-144.33;39.76
19843;BME280;10082;51.038;6.992;2022-08-11T06:37:12;112171.53;;;-144.33;39.23
19843;BME280;10082;51.038;6.992;2022-08-11T06:39:46;112171.53;;;-144.33;38.37
19843;BME280;10082;51.038;6.992;2022-08-11T06:42:27;112171.53;;;-144.33;38.48
19843;BME280;10082;51.038;6.992;2022-08-11T06:45:02;112171.53;;;-144.33;38.36
19843;BME280;10082;51.038;6.992;2022-08-11T06:47:33;112171.53;;;-144.33;38.17
19843;BME280;10082;51.038;6.992;2022-08-11T06:50:01;112171.53;;;-144.33;37.48
19843;BME280;10082;51.038;6.992;2022-08-11T06:52:46;112171.53;;;-144.33;36.75
19843;BME280;10082;51.038;6.992;2022-08-11T06:55:20;112171.53;;;-144.33;36.15
19843;BME280;10082;51.038;6.992;2022-08-11T06:58:12;112171.53;;;-144.33;35.47
19843;BME280;10082;51.038;6.992;2022-08-11T07:00:59;112171.53;;;-144.33;34.19
19843;BME280;10082;51.038;6.992;2022-08-11T07:03:31;112171.53;;;-144.33;34.88
19843;BME280;10082;51.038;6.992;2022-08-11T07:06:08;112171.53;;;-144.33;34.46
19843;BME280;10082;51.038;6.992;2022-08-11T07:09:06;112171.53;;;-144.33;33.73
19843;BME280;10082;51.038;6.992;2022-08-11T07:11:59;112171.53;;;-144.33;33.72
19843;BME280;10082;51.038;6.992;2022-08-11T07:14:50;112171.53;;;-144.33;34.08
19843;BME280;10082;51.038;6.992;2022-08-11T07:17:39;112171.53;;;-144.33;33.36
19843;BME280;10082;51.038;6.992;2022-08-11T07:20:09;112171.53;;;-144.33;33.61
19843;BME280;10082;51.038;6.992;2022-08-11T07:22:58;112171.53;;;-144.33;33.05
19843;BME280;10082;51.038;6.992;2022-08-11T07:25:48;112171.53;;;-144.33;33.04
19843;BME280;10082;51.038;6.992;2022-08-11T07:28:37;112171.53;;;-144.33;32.77
19843;BME280;10082;51.038;6.992;2022-08-11T07:31:29;112171.53;;;-144.33;32.61
19843;BME280;10082;51.038;6.992;2022-08-11T07:34:04;112171.53;;;-144.33;32.42
19843;BME280;10082;51.038;6.992;2022-08-11T07:36:37;112171.53;;;-144.33;33.57
19843;BME280;10082;51.038;6.992;2022-08-11T07:39:07;112171.53;;;-144.33;32.00
19843;BME280;10082;51.038;6.992;2022-08-11T07:41:36;112171.53;;;-144.33;31.66
19843;BME280;10082;51.038;6.992;2022-08-11T07:44:04;112171.53;;;-144.33;31.97
19843;BME280;10082;51.038;6.992;2022-08-11T07:46:35;112171.53;;;-144.33;31.78
19843;BME280;10082;51.038;6.992;2022-08-11T07:49:23;112171.53;;;-144.33;31.37
19843;BME280;10082;51.038;6.992;2022-08-11T07:52:08;112171.53;;;-144.33;31.68
19843;BME280;10082;51.038;6.992;2022-08-11T07:54:55;112171.53;;;-144.33;32.31
19843;BME280;10082;51.038;6.992;2022-08-11T07:57:23;112171.53;;;-144.33;31.15
19843;BME280;10082;51.038;6.992;2022-08-11T08:00:09;112171.53;;;-144.33;31.44
19843;BME280;10082;51.038;6.992;2022-08-11T08:02:53;112171.53;;;-144.33;30.46
19843;BME280;10082;51.038;6.992;2022-08-11T08:05:40;112171.53;;;-144.33;29.49
19843;BME280;10082;51.038;6.992;2022-08-11T08:08:25;112171.53;;;-144.33;29.89
19843;BME280;10082;51.038;6.992;2022-08-11T08:11:10;112171.53;;;-144.33;29.04
19843;BME280;10082;51.038;6.992;2022-08-11T08:13:55;112171.53;;;-144.33;28.80
19843;BME280;10082;51.038;6.992;2022-08-11T08:16:40;112171.53;;;-144.33;28.49
19843;BME280;10082;51.038;6.992;2022-08-11T08:19:25;112171.53;;;-144.33;28.27
19843;BME280;10082;51.038;6.992;2022-08-11T08:21:54;112171.53;;;-144.33;27.96
19843;BME280;10082;51.038;6.992;2022-08-11T08:24:21;112171.53;;;-144.33;27.30
19843;BME280;10082;51.038;6.992;2022-08-11T08:26:48;112171.53;;;-144.33;27.38
19843;BME280;10082;51.038;6.992;2022-08-11T08:29:25;112171.53;;;-144.33;28.25
19843;BME280;10082;51.038;6.992;2022-08-11T08:32:10;112171.53;;;-144.33;28.19
19843;BME280;10082;51.038;6.992;2022-08-11T08:34:38;112171.53;;;-144.33;27.72
19843;BME280;10082;51.038;6.992;2022-08-11T08:37:07;112171.53;;;-144.33;27.77
19843;BME280;10082;51.038;6.992;2022-08-11T08:39:33;112171.53;;;-144.33;27.57
19843;BME280;10082;51.038;6.992;2022-08-11T08:42:06;112171.53;;;-144.33;28.22
19843;BME280;10082;51.038;6.992;2022-08-11T08:44:39;112171.53;;;-144.33;28.44
19843;BME280;10082;51.038;6.992;2022-08-11T08:47:09;112171.53;;;-144.33;28.42
19843;BME280;10082;51.038;6.992;2022-08-11T08:49:40;112171.53;;;-144.33;27.36
19843;BME280;10082;51.038;6.992;2022-08-11T08:52:22;112171.53;;;-144.33;26.42
19843;BME280;10082;51.038;6.992;2022-08-11T08:54:52;112171.53;;;-144.33;26.89
19843;BME280;10082;51.038;6.992;2022-08-11T08:57:22;112171.53;;;-144.33;26.44
19843;BME280;10082;51.038;6.992;2022-08-11T08:59:50;112171.53;;;-144.33;26.61
19843;BME280;10082;51.038;6.992;2022-08-11T09:02:19;112171.53;;;-144.33;26.17
19843;BME280;10082;51.038;6.992;2022-08-11T09:04:49;112171.53;;;-144.33;26.15
19843;BME280;10082;51.038;6.992;2022-08-11T09:07:22;112171.53;;;-144.33;25.85
19843;BME280;10082;51.038;6.992;2022-08-11T09:09:52;112171.53;;;-144.33;25.00
19843;BME280;10082;51.038;6.992;2022-08-11T09:12:20;112171.53;;;-144.33;25.43
19843;BME280;10082;51.038;6.992;2022-08-11T09:14:48;112171.53;;;-144.33;25.54
19843;BME280;10082;51.038;6.992;2022-08-11T09:17:31;112171.53;;;-144.33;25.25
19843;BME280;10082;51.038;6.992;2022-08-11T09:20:02;112171.53;;;-144.33;25.06
19843;BME280;10082;51.038;6.992;2022-08-11T09:22:32;112171.53;;;-144.33;24.84
19843;BME280;10082;51.038;6.992;2022-08-11T09:25:19;112171.53;;;-144.33;25.30
19843;BME280;10082;51.038;6.992;2022-08-11T09:28:04;112171.53;;;-144.33;25.02
19843;BME280;10082;51.038;6.992;2022-08-11T09:30:32;112171.53;;;-144.33;25.49
19843;BME280;10082;51.038;6.992;2022-08-11T09:33:01;112171.53;;;-144.33;25.15
19843;BME280;10082;51.038;6.992;2022-08-11T09:35:34;112171.53;;;-144.33;24.66
19843;BME280;10082;51.038;6.992;2022-08-11T09:38:04;112171.53;;;-144.33;24.03
19843;BME280;10082;51.038;6.992;2022-08-11T09:40:50;112171.53;;;-144.33;23.74
19843;BME280;10082;51.038;6.992;2022-08-11T09:43:18;112171.53;;;-144.33;24.10
19843;BME280;10082;51.038;6.992;2022-08-11T09:46:04;112171.53;;;-144.33;24.95
19843;BME280;10082;51.038;6.992;2022-08-11T09:48:35;112171.53;;;-144.33;24.08
19843;BME280;10082;51.038;6.992;2022-08-11T09:51:03;112171.53;;;-144.33;24.39
19843;BME280;10082;51.038;6.992;2022-08-11T09:53:35;112171.53;;;-144.33;25.16
19843;BME280;10082;51.038;6.992;2022-08-11T09:56:03;112171.53;;;-144.33;25.53
19843;BME280;10082;51.038;6.992;2022-08-11T09:58:51;112171.53;;;-144.33;24.65
19843;BME280;10082;51.038;6.992;2022-08-11T10:01:20;112171.53;;;-144.33;23.85
19843;BME280;10082;51.038;6.992;2022-08-11T10:03:59;112171.53;;;-144.33;22.58
19843;BME280;10082;51.038;6.992;2022-08-11T10:06:27;112171.53;;;-144.33;22.49
19843;BME280;10082;51.038;6.992;2022-08-11T10:09:17;112171.53;;;-144.33;23.89
19843;BME280;10082;51.038;6.992;2022-08-11T10:11:46;112171.53;;;-144.33;24.03
19843;BME280;10082;51.038;6.992;2022-08-11T10:14:15;112171.53;;;-144.33;23.84
19843;BME280;10082;51.038;6.992;2022-08-11T10:17:04;112171.53;;;-144.33;23.32
19843;BME280;10082;51.038;6.992;2022-08-11T10:19:32;112171.53;;;-144.33;23.27
19843;BME280;10082;51.038;6.992;2022-08-11T10:22:00;112171.53;;;-144.33;23.77
19843;BME280;10082;51.038;6.992;2022-08-11T10:24:46;112171.53;;;-144.33;23.78
19843;BME280;10082;51.038;6.992;2022-08-11T10:27:31;112171.53;;;-144.33;25.09
19843;BME280;10082;51.038;6.992;2022-08-11T10:29:58;112171.53;;;-144.33;25.50
19843;BME280;10082;51.038;6.992;2022-08-11T10:32:52;112171.53;;;-144.33;24.28
19843;BME280;10082;51.038;6.992;2022-08-11T10:35:37;112171.53;;;-144.33;22.92
19843;BME280;10082;51.038;6.992;2022-08-11T10:38:04;112171.53;;;-144.33;23.15
19843;BME280;10082;51.038;6.992;2022-08-11T10:40:32;112171.53;;;-144.33;24.17
19843;BME280;10082;51.038;6.992;2022-08-11T10:43:00;112171.53;;;-144.33;24.92
19843;BME280;10082;51.038;6.992;2022-08-11T10:45:34;112171.53;;;-144.33;24.31
19843;BME280;10082;51.038;6.992;2022-08-11T10:48:20;112171.53;;;-144.33;23.26
19843;BME280;10082;51.038;6.992;2022-08-11T10:50:48;112171.53;;;-144.33;22.54
19843;BME280;10082;51.038;6.992;2022-08-11T10:53:34;112171.53;;;-144.33;22.87
19843;BME280;10082;51.038;6.992;2022-08-11T10:56:20;112171.53;;;-144.33;22.79
19843;BME280;10082;51.038;6.992;2022-08-11T10:59:05;112171.53;;;-144.33;22.93
19843;BME280;10082;51.038;6.992;2022-08-11T11:01:37;112171.53;;;-144.33;22.84
19843;BME280;10082;51.038;6.992;2022-08-11T11:04:07;112171.53;;;-144.33;22.59
19843;BME280;10082;51.038;6.992;2022-08-11T11:06:47;112171.53;;;-144.33;22.73
19843;BME280;10082;51.038;6.992;2022-08-11T11:09:17;112171.53;;;-144.33;22.21
19843;BME280;10082;51.038;6.992;2022-08-11T11:11:49;112171.53;;;-144.33;21.72
19843;BME280;10082;51.038;6.992;2022-08-11T11:14:35;112171.53;;;-144.33;21.93
19843;BME280;10082;51.038;6.992;2022-08-11T11:17:26;112171.53;;;-144.33;22.52
19843;BME280;10082;51.038;6.992;2022-08-11T11:20:14;112171.53;;;-144.33;22.76
19843;BME280;10082;51.038;6.992;2022-08-11T11:22:42;112171.53;;;-144.33;22.27
19843;BME280;10082;51.038;6.992;2022-08-11T11:25:21;112171.53;;;-144.33;22.47
19843;BME280;10082;51.038;6.992;2022-08-11T11:28:04;112171.53;;;-144.33;22.21
19843;BME280;10082;51.038;6.992;2022-08-11T11:30:41;112171.53;;;-144.33;22.01
19843;BME280;10082;51.038;6.992;2022-08-11T11:33:18;112171.53;;;-144.33;22.16
19843;BME280;10082;51.038;6.992;2022-08-11T11:35:56;112171.53;;;-144.33;23.08
19843;BME280;10082;51.038;6.992;2022-08-11T11:38:27;112171.53;;;-144.33;22.86
19843;BME280;10082;51.038;6.992;2022-08-11T11:40:55;112171.53;;;-144.33;22.35
19843;BME280;10082;51.038;6.992;2022-08-11T11:43:41;112171.53;;;-144.33;22.61
19843;BME280;10082;51.038;6.992;2022-08-11T11:46:07;112171.53;;;-144.33;21.66
19843;BME280;10082;51.038;6.992;2022-08-11T11:48:36;112171.53;;;-144.33;21.77
19843;BME280;10082;51.038;6.992;2022-08-11T11:51:03;112171.53;;;-144.33;22.63
19843;BME280;10082;51.038;6.992;2022-08-11T11:53:31;112171.53;;;-144.33;21.88
19843;BME280;10082;51.038;6.992;2022-08-11T11:55:58;112171.53;;;-144.33;22.52
19843;BME280;10082;51.038;6.992;2022-08-11T11:58:26;112171.53;;;-144.33;21.48
19843;BME280;10082;51.038;6.992;2022-08-11T12:01:12;112171.53;;;-144.33;21.67
19843;BME280;10082;51.038;6.992;2022-08-11T12:03:46;112171.53;;;-144.33;21.97
19843;BME280;10082;51.038;6.992;2022-08-11T12:06:16;112171.53;;;-144.33;22.70
19843;BME280;10082;51.038;6.992;2022-08-11T12:08:43;112171.53;;;-144.33;22.49
19843;BME280;10082;51.038;6.992;2022-08-11T12:11:14;112171.53;;;-144.33;22.40
19843;BME280;10082;51.038;6.992;2022-08-11T12:14:01;112171.53;;;-144.33;22.69
19843;BME280;10082;51.038;6.992;2022-08-11T12:16:30;112171.53;;;-144.33;22.64
19843;BME280;10082;51.038;6.992;2022-08-11T12:19:00;112171.53;;;-144.33;22.69
19843;BME280;10082;51.038;6.992;2022-08-11T12:21:28;112171.53;;;-144.33;21.92
19843;BME280;10082;51.038;6.992;2022-08-11T12:23:57;112171.53;;;-144.33;21.95
19843;BME280;10082;51.038;6.992;2022-08-11T12:26:43;112171.53;;;-144.33;22.10
19843;BME280;10082;51.038;6.992;2022-08-11T12:29:28;112171.53;;;-144.33;22.35
19843;BME280;10082;51.038;6.992;2022-08-11T12:31:57;112171.53;;;-144.33;22.59
19843;BME280;10082;51.038;6.992;2022-08-11T12:34:26;112171.53;;;-144.33;22.79
19843;BME280;10082;51.038;6.992;2022-08-11T12:36:57;112171.53;;;-144.33;22.41
19843;BME280;10082;51.038;6.992;2022-08-11T12:39:27;112171.53;;;-144.33;22.08
19843;BME280;10082;51.038;6.992;2022-08-11T12:42:16;112171.53;;;-144.33;22.20
19843;BME280;10082;51.038;6.992;2022-08-11T12:45:02;112171.53;;;-144.33;21.78
19843;BME280;10082;51.038;6.992;2022-08-11T12:47:49;112171.53;;;-144.33;21.20
19843;BME280;10082;51.038;6.992;2022-08-11T12:50:34;112171.53;;;-144.33;21.34
19843;BME280;10082;51.038;6.992;2022-08-11T12:53:22;112171.53;;;-144.33;21.39
19843;BME280;10082;51.038;6.992;2022-08-11T12:55:50;112171.53;;;-144.33;21.35
19843;BME280;10082;51.038;6.992;2022-08-11T12:58:39;112171.53;;;-144.33;21.52
19843;BME280;10082;51.038;6.992;2022-08-11T13:01:07;112171.53;;;-144.33;21.44
19843;BME280;10082;51.038;6.992;2022-08-11T13:03:54;112171.53;;;-144.33;21.28
19843;BME280;10082;51.038;6.992;2022-08-11T13:06:38;112171.53;;;-144.33;20.75
19843;BME280;10082;51.038;6.992;2022-08-11T13:09:08;112171.53;;;-144.33;20.52
19843;BME280;10082;51.038;6.992;2022-08-11T13:11:37;112171.53;;;-144.33;20.83
19843;BME280;10082;51.038;6.992;2022-08-11T13:14:22;112171.53;;;-144.33;21.20
19843;BME280;10082;51.038;6.992;2022-08-11T13:16:50;112171.53;;;-144.33;21.25
19843;BME280;10082;51.038;6.992;2022-08-11T13:19:48;112171.53;;;-144.33;21.52
19843;BME280;10082;51.038;6.992;2022-08-11T13:22:17;112171.53;;;-144.33;21.86
19843;BME280;10082;51.038;6.992;2022-08-11T13:24:44;112171.53;;;-144.33;21.42
19843;BME280;10082;51.038;6.992;2022-08-11T13:27:14;112171.53;;;-144.33;21.84
19843;BME280;10082;51.038;6.992;2022-08-11T13:29:42;112171.53;;;-144.33;21.18
19843;BME280;10082;51.038;6.992;2022-08-11T13:32:11;112171.53;;;-144.33;21.99
19843;BME280;10082;51.038;6.992;2022-08-11T13:34:39;112171.53;;;-144.33;21.50
19843;BME280;10082;51.038;6.992;2022-08-11T13:37:11;112171.53;;;-144.33;22.06
19843;BME280;10082;51.038;6.992;2022-08-11T13:39:40;112171.53;;;-144.33;22.54
19843;BME280;10082;51.038;6.992;2022-08-11T13:42:13;112171.53;;;-144.33;21.55
19843;BME280;10082;51.038;6.992;2022-08-11T13:44:41;112171.53;;;-144.33;21.74
19843;BME280;10082;51.038;6.992;2022-08-11T13:47:11;112171.53;;;-144.33;20.95
19843;BME280;10082;51.038;6.992;2022-08-11T13:49:39;112171.53;;;-144.33;21.52
19843;BME280;10082;51.038;6.992;2022-08-11T13:52:10;112171.53;;;-144.33;21.47
19843;BME280;10082;51.038;6.992;2022-08-11T13:54:40;112171.53;;;-144.33;20.98
19843;BME280;10082;51.038;6.992;2022-08-11T13:57:08;112171.53;;;-144.33;21.12
19843;BME280;10082;51.038;6.992;2022-08-11T13:59:37;112171.53;;;-144.33;20.92